Página principal
METAR-TAF:

METAR-TAF

Aeroportos :

Cambridge, Inglaterra

latitude: 52-12N, longitude: 000-11E, altura: 15 m

Observação actual do tempo

O boletim foi feito há 6 horas e 3 minutos, às 17:50 UTC
Vento 5 kt de es-nordeste, variando entre nordeste e este
Temperatura 1°C
Humidade 75%
Pressão 1024 hPa
Visibilidade 10 km ou mais
sem nuvens abaixo de 1500 metros e sem cumulonimbus

METAR: EGSC 241750Z 07005KT 040V100 CAVOK 01/M03 Q1024

Hora: 23:53 (23:53 UTC)

Previsão

O boletim foi feito há 9 horas e 50 minutos, às 14:03 UTC
Previsão válida de 24 às 15 UTC a 24 às 19 UTC
Vento 9 kt de este
Visibilidade 10 km ou mais
Poucas nuvensa uma altura de 4500 ft

TAF: EGSC 241403Z 2415/2419 09009KT 9999 FEW045

Observações e previsões do tempo de mais de 4000 aeroportos (mensagens METAR e TAF).

As estações disponíveis são os pontos amarelos e vermelhos sobre o mapa.

Mova o rato sobre o mapa para ver o nome da estação.

Depois clique no ponto para visualizar as observações e previsões meteorológicas.

Para alterar o mapa : clique nos botões verdes com uma cruz preta para aumentar o zoom; no botão verde com uma pitada de zoom; ou nas setas verdes para mapas adjacentes.


METAR-TAF: